createdAt,value
2019-06-20T00:00:53.007Z,0.00
2019-06-20T00:01:53.042Z,0.00
2019-06-20T00:02:53.083Z,0.00
2019-06-20T00:03:53.111Z,0.00
2019-06-20T00:04:53.147Z,0.00
2019-06-20T00:05:53.182Z,0.00
2019-06-20T00:06:53.217Z,0.00
2019-06-20T00:07:53.256Z,0.00
2019-06-20T00:08:53.491Z,0.00
2019-06-20T00:09:53.374Z,0.00
2019-06-20T00:10:53.359Z,0.00
2019-06-20T00:11:53.423Z,0.00
2019-06-20T00:13:00.474Z,0.00
2019-06-20T00:13:53.464Z,0.00
2019-06-20T00:14:53.497Z,0.00
2019-06-20T00:15:53.735Z,0.00
2019-06-20T00:16:53.569Z,0.00
2019-06-20T00:17:53.604Z,0.00
2019-06-20T00:18:53.640Z,0.00
2019-06-20T00:19:53.674Z,0.00
2019-06-20T00:20:53.709Z,0.00
2019-06-20T00:21:54.073Z,0.00
2019-06-20T00:22:54.035Z,0.00
2019-06-20T00:23:53.840Z,0.00
2019-06-20T00:24:55.091Z,0.00
2019-06-20T00:42:06.452Z,0.00
2019-06-20T00:55:30.620Z,0.00
2019-06-20T01:01:30.098Z,0.00
2019-06-20T01:02:30.742Z,0.00
2019-06-20T01:11:08.652Z,0.00
2019-06-20T01:28:30.793Z,0.00
2019-06-20T01:35:59.884Z,0.00
2019-06-20T02:03:06.531Z,0.00
2019-06-20T02:07:07.097Z,0.00
2019-06-20T02:26:03.671Z,0.00
2019-06-20T03:01:09.897Z,0.00
2019-06-20T03:43:35.734Z,312.00
2019-06-20T03:46:35.835Z,472.00
2019-06-20T03:48:36.011Z,568.00
2019-06-20T03:49:36.450Z,612.00
2019-06-20T03:50:35.974Z,660.00
2019-06-20T03:52:35.840Z,752.00
2019-06-20T03:53:36.183Z,800.00
2019-06-20T03:54:35.908Z,852.00
2019-06-20T03:55:36.145Z,896.00
2019-06-20T03:56:35.981Z,944.00
2019-06-20T03:58:36.024Z,1032.00
2019-06-20T04:00:36.095Z,1108.00
2019-06-20T04:01:36.128Z,1148.00
2019-06-20T04:02:36.163Z,1196.00
2019-06-20T04:03:36.220Z,1236.00
2019-06-20T04:04:37.877Z,1280.00
2019-06-20T04:05:36.265Z,1320.00
2019-06-20T04:06:36.350Z,1352.00
2019-06-20T04:07:36.559Z,1368.00
2019-06-20T04:08:37.010Z,1376.00
2019-06-20T04:21:32.812Z,1572.00
2019-06-20T04:30:25.954Z,2132.00
2019-06-20T04:34:25.487Z,2372.00
2019-06-20T04:35:25.523Z,2400.00
2019-06-20T04:36:25.734Z,2424.00
2019-06-20T04:37:27.586Z,2456.00
2019-06-20T04:38:25.620Z,2484.00
2019-06-20T04:39:25.656Z,2468.00
2019-06-20T04:40:25.692Z,2420.00
2019-06-20T04:41:25.739Z,2392.00
2019-06-20T04:45:01.695Z,2412.00
2019-06-20T04:46:02.017Z,2444.00
2019-06-20T04:47:01.995Z,2440.00
2019-06-20T04:48:02.179Z,2456.00
2019-06-20T04:49:01.784Z,2564.00
2019-06-20T04:52:21.702Z,2860.00
2019-06-20T05:02:44.642Z,3812.00
2019-06-20T05:03:44.883Z,4024.00
2019-06-20T05:04:44.750Z,4328.00
2019-06-20T05:05:44.925Z,4624.00
2019-06-20T05:06:44.782Z,4704.00
2019-06-20T05:07:44.818Z,4800.00
2019-06-20T05:08:44.826Z,4952.00
2019-06-20T05:12:10.748Z,5196.00
2019-06-20T05:16:10.909Z,5236.00
2019-06-20T05:17:11.125Z,5420.00
2019-06-20T05:18:11.182Z,5568.00
2019-06-20T05:19:10.991Z,5716.00
2019-06-20T05:20:11.057Z,5800.00
2019-06-20T05:21:11.060Z,5892.00
2019-06-20T05:22:11.096Z,6120.00
2019-06-20T05:23:11.129Z,6460.00
2019-06-20T05:24:11.190Z,6664.00
2019-06-20T05:25:11.206Z,6664.00
2019-06-20T05:26:11.236Z,6528.00
2019-06-20T05:27:11.270Z,6364.00
2019-06-20T05:28:11.307Z,6216.00
2019-06-20T05:29:11.392Z,6040.00
2019-06-20T05:30:11.377Z,5800.00
2019-06-20T05:31:11.412Z,5608.00
2019-06-20T05:32:11.449Z,5408.00
2019-06-20T05:33:11.484Z,5220.00
2019-06-20T05:34:11.523Z,5044.00
2019-06-20T05:35:11.556Z,4824.00
2019-06-20T05:36:11.613Z,4572.00
2019-06-20T05:37:11.625Z,4388.00
2019-06-20T05:38:11.683Z,4308.00
2019-06-20T05:39:11.693Z,4200.00
2019-06-20T05:40:11.731Z,4236.00
2019-06-20T05:41:11.786Z,4132.00
2019-06-20T05:42:12.005Z,4084.00
2019-06-20T05:43:11.858Z,3892.00
2019-06-20T05:44:11.901Z,3848.00
2019-06-20T05:46:12.148Z,3784.00
2019-06-20T05:47:13.942Z,3644.00
2019-06-20T05:48:12.039Z,3632.00
2019-06-20T05:49:12.075Z,3512.00
2019-06-20T05:50:13.300Z,3424.00
2019-06-20T05:51:12.145Z,3364.00
2019-06-20T05:52:12.584Z,3336.00
2019-06-20T05:53:12.217Z,3340.00
2019-06-20T05:56:12.525Z,3408.00
2019-06-20T05:58:12.431Z,3636.00
2019-06-20T05:59:12.749Z,3836.00
2019-06-20T06:00:12.461Z,4104.00
2019-06-20T06:02:12.578Z,4644.00
2019-06-20T06:03:13.791Z,4716.00
2019-06-20T06:04:12.600Z,4852.00
2019-06-20T06:05:12.638Z,5220.00
2019-06-20T06:06:12.650Z,5848.00
2019-06-20T06:07:14.198Z,6556.00
2019-06-20T06:08:12.725Z,7240.00
2019-06-20T06:09:12.780Z,7112.00
2019-06-20T06:10:12.798Z,6704.00
2019-06-20T06:11:12.856Z,6428.00
2019-06-20T06:12:12.862Z,6372.00
2019-06-20T06:13:12.932Z,6392.00
2019-06-20T06:14:13.878Z,6588.00
2019-06-20T06:15:12.975Z,6824.00
2019-06-20T06:16:25.707Z,7204.00
2019-06-20T06:17:13.041Z,7300.00
2019-06-20T06:18:14.127Z,7356.00
2019-06-20T06:19:13.110Z,7448.00
2019-06-20T06:20:13.351Z,7548.00
2019-06-20T06:21:13.207Z,7744.00
2019-06-20T06:22:13.218Z,7520.00
2019-06-20T06:23:13.255Z,7452.00
2019-06-20T06:24:13.329Z,6596.00
2019-06-20T06:26:13.365Z,5668.00
2019-06-20T06:27:13.427Z,4740.00
2019-06-20T06:28:13.435Z,4104.00
2019-06-20T06:29:13.473Z,3772.00
2019-06-20T06:30:13.508Z,3488.00
2019-06-20T06:31:13.563Z,3464.00
2019-06-20T06:32:13.605Z,3476.00
2019-06-20T06:33:13.844Z,3580.00
2019-06-20T06:34:14.081Z,3656.00
2019-06-20T06:40:39.689Z,9028.00
2019-06-20T06:41:39.723Z,9404.00
2019-06-20T06:43:41.915Z,10060.00
2019-06-20T06:44:39.835Z,10536.00
2019-06-20T06:46:47.295Z,11528.00
2019-06-20T06:47:39.939Z,12020.00
2019-06-20T06:48:40.000Z,12076.00
2019-06-20T06:50:40.082Z,12160.00
2019-06-20T06:51:40.111Z,12236.00
2019-06-20T06:52:40.121Z,11928.00
2019-06-20T06:53:40.158Z,11512.00
2019-06-20T06:54:40.206Z,11704.00
2019-06-20T06:56:40.500Z,10196.00
2019-06-20T06:59:40.379Z,9964.00
2019-06-20T07:00:40.416Z,10500.00
2019-06-20T07:01:40.455Z,11444.00
2019-06-20T07:02:40.494Z,11972.00
2019-06-20T07:03:40.555Z,11924.00
2019-06-20T07:04:40.586Z,11192.00
2019-06-20T07:05:40.628Z,10888.00
2019-06-20T07:06:40.663Z,10948.00
2019-06-20T07:07:42.523Z,10440.00
2019-06-20T07:15:41.806Z,13560.00
2019-06-20T07:16:41.017Z,14016.00
2019-06-20T07:18:41.089Z,13692.00
2019-06-20T07:19:41.123Z,13408.00
2019-06-20T07:20:41.161Z,13724.00
2019-06-20T07:21:41.204Z,14080.00
2019-06-20T07:22:41.238Z,14596.00
2019-06-20T07:24:41.311Z,15552.00
2019-06-20T07:26:41.386Z,15684.00
2019-06-20T07:27:41.480Z,16096.00
2019-06-20T07:28:42.474Z,15604.00
2019-06-20T07:29:41.498Z,15192.00
2019-06-20T07:30:41.539Z,14656.00
2019-06-20T07:31:41.578Z,13928.00
2019-06-20T07:32:41.613Z,14196.00
2019-06-20T07:33:41.652Z,14596.00
2019-06-20T07:34:41.691Z,15016.00
2019-06-20T07:35:42.072Z,14948.00
2019-06-20T07:36:41.996Z,14604.00
2019-06-20T07:37:42.031Z,14592.00
2019-06-20T07:39:41.880Z,14596.00
2019-06-20T07:40:41.918Z,14824.00
2019-06-20T07:41:41.957Z,14756.00
2019-06-20T07:42:41.995Z,15156.00
2019-06-20T07:43:42.032Z,15784.00
2019-06-20T07:44:42.081Z,16100.00
2019-06-20T07:45:42.109Z,15860.00
2019-06-20T07:46:42.147Z,15804.00
2019-06-20T07:48:42.223Z,15520.00
2019-06-20T07:49:42.262Z,14668.00
2019-06-20T07:50:43.036Z,14476.00
2019-06-20T07:52:51.842Z,14476.00
2019-06-20T07:53:42.747Z,14272.00
2019-06-20T07:56:56.086Z,14452.00
2019-06-20T07:57:55.397Z,14296.00
2019-06-20T07:58:55.454Z,15140.00
2019-06-20T08:00:55.536Z,16704.00
2019-06-20T08:02:55.586Z,16480.00
2019-06-20T08:03:55.623Z,15808.00
2019-06-20T08:04:56.088Z,14828.00
2019-06-20T08:06:55.952Z,13456.00
2019-06-20T08:07:55.784Z,13604.00
2019-06-20T08:08:55.816Z,14172.00
2019-06-20T08:09:55.860Z,14880.00
2019-06-20T08:10:55.896Z,14832.00
2019-06-20T08:11:55.933Z,14652.00
2019-06-20T08:12:55.972Z,14548.00
2019-06-20T08:13:56.034Z,14636.00
2019-06-20T08:14:56.379Z,15280.00
2019-06-20T08:15:56.110Z,15476.00
2019-06-20T08:18:56.205Z,15260.00
2019-06-20T08:19:56.253Z,15128.00
2019-06-20T08:20:56.307Z,15960.00
2019-06-20T08:21:56.345Z,16832.00
2019-06-20T08:22:56.386Z,17472.00
2019-06-20T08:25:57.507Z,18240.00
2019-06-20T08:27:57.793Z,17728.00
2019-06-20T08:29:10.324Z,17696.00
2019-06-20T08:29:57.877Z,17504.00
2019-06-20T08:30:57.684Z,17440.00
2019-06-20T08:31:57.978Z,17440.00
2019-06-20T08:32:59.149Z,17760.00
2019-06-20T08:33:57.703Z,18112.00
2019-06-20T08:34:58.996Z,18848.00
2019-06-20T08:35:57.512Z,20032.00
2019-06-20T08:36:57.811Z,21792.00
2019-06-20T08:37:57.808Z,20576.00
2019-06-20T08:38:57.553Z,20224.00
2019-06-20T08:39:58.372Z,20896.00
2019-06-20T08:40:58.393Z,20544.00
2019-06-20T08:41:58.915Z,20160.00
2019-06-20T08:42:58.448Z,20480.00
2019-06-20T08:43:58.461Z,20768.00
2019-06-20T08:44:57.876Z,21792.00
2019-06-20T08:45:57.857Z,21184.00
2019-06-20T08:46:59.222Z,21472.00
2019-06-20T08:47:58.310Z,21824.00
2019-06-20T08:48:58.260Z,21280.00
2019-06-20T09:01:57.987Z,25088.00
2019-06-20T09:02:56.561Z,23616.00
2019-06-20T09:03:56.705Z,22784.00
2019-06-20T09:04:56.490Z,22240.00
2019-06-20T09:05:56.622Z,21184.00
2019-06-20T09:06:57.023Z,22080.00
2019-06-20T09:07:57.183Z,23104.00
2019-06-20T09:08:58.186Z,23616.00
2019-06-20T09:09:55.860Z,24320.00
2019-06-20T09:10:55.762Z,24512.00
2019-06-20T09:11:56.529Z,22752.00
2019-06-20T09:12:56.996Z,21024.00
2019-06-20T09:13:57.035Z,20416.00
2019-06-20T09:15:56.770Z,20320.00
2019-06-20T09:17:41.761Z,21184.00
2019-06-20T09:19:20.924Z,20768.00
2019-06-20T09:21:13.542Z,20864.00
2019-06-20T09:22:13.583Z,22048.00
2019-06-20T09:23:13.623Z,22752.00
2019-06-20T09:24:13.664Z,22272.00
2019-06-20T09:25:13.713Z,23488.00
2019-06-20T09:37:46.455Z,25472.00
2019-06-20T09:38:46.520Z,28128.00
2019-06-20T09:40:29.083Z,26944.00
2019-06-20T09:41:29.123Z,24512.00
2019-06-20T09:42:29.233Z,22304.00
2019-06-20T09:43:31.828Z,21152.00
2019-06-20T09:44:29.246Z,18720.00
2019-06-20T09:45:29.286Z,18784.00
2019-06-20T09:46:31.949Z,18080.00
2019-06-20T09:47:29.366Z,17216.00
2019-06-20T09:48:29.410Z,18176.00
2019-06-20T09:49:29.459Z,20160.00
2019-06-20T09:50:29.489Z,20192.00
2019-06-20T09:51:29.529Z,20736.00
2019-06-20T09:52:29.573Z,21312.00
2019-06-20T09:53:29.612Z,21984.00
2019-06-20T09:54:30.868Z,20960.00
2019-06-20T09:55:29.713Z,19648.00
2019-06-20T09:56:29.733Z,20384.00
2019-06-20T09:57:29.775Z,20384.00
2019-06-20T09:58:29.829Z,21600.00
2019-06-20T09:59:29.855Z,20544.00
2019-06-20T10:00:29.896Z,21376.00
2019-06-20T10:01:29.937Z,24096.00
2019-06-20T10:02:29.979Z,21856.00
2019-06-20T10:03:30.022Z,21024.00
2019-06-20T10:04:30.063Z,21632.00
2019-06-20T10:05:30.101Z,23008.00
2019-06-20T10:06:30.144Z,21792.00
2019-06-20T10:07:30.187Z,24480.00
2019-06-20T10:08:30.227Z,25504.00
2019-06-20T10:09:30.264Z,25728.00
2019-06-20T10:10:30.309Z,28128.00
2019-06-20T10:11:30.348Z,29952.00
2019-06-20T10:12:30.389Z,30496.00
2019-06-20T10:13:32.649Z,31584.00
2019-06-20T10:14:30.485Z,28544.00
2019-06-20T10:15:30.564Z,28288.00
2019-06-20T10:17:30.596Z,24128.00
2019-06-20T10:18:30.652Z,24384.00
2019-06-20T10:19:30.677Z,24192.00
2019-06-20T10:20:30.718Z,24448.00
2019-06-20T10:21:30.760Z,23040.00
2019-06-20T10:22:30.801Z,24672.00
2019-06-20T10:23:30.871Z,27808.00
2019-06-20T10:24:30.883Z,28352.00
2019-06-20T10:25:30.924Z,28576.00
2019-06-20T10:26:30.980Z,28384.00
2019-06-20T10:27:31.006Z,23904.00
2019-06-20T10:28:31.052Z,24448.00
2019-06-20T10:29:31.088Z,22016.00
2019-06-20T10:30:31.132Z,18016.00
2019-06-20T10:31:31.171Z,18208.00
2019-06-20T10:32:31.212Z,19744.00
2019-06-20T10:33:31.296Z,19456.00
2019-06-20T10:34:31.307Z,17056.00
2019-06-20T10:35:31.386Z,15844.00
2019-06-20T10:36:31.377Z,15960.00
2019-06-20T10:37:31.445Z,17184.00
2019-06-20T10:38:31.482Z,20032.00
2019-06-20T10:39:31.500Z,24224.00
2019-06-20T10:40:31.540Z,28064.00
2019-06-20T10:41:31.582Z,29952.00
2019-06-20T10:42:31.660Z,30816.00
2019-06-20T10:43:31.685Z,31808.00
2019-06-20T10:44:31.730Z,30976.00
2019-06-20T10:45:31.750Z,31808.00
2019-06-20T10:46:31.785Z,25952.00
2019-06-20T10:47:35.804Z,27168.00
2019-06-20T10:48:31.874Z,27552.00
2019-06-20T10:49:31.911Z,27584.00
2019-06-20T10:51:14.568Z,27008.00
2019-06-20T10:52:14.609Z,31232.00
2019-06-20T10:53:14.651Z,41344.00
2019-06-20T10:54:14.690Z,52992.00
2019-06-20T10:55:14.733Z,56608.00
2019-06-20T10:56:14.775Z,67360.00
2019-06-20T10:57:14.816Z,56928.00
2019-06-20T10:58:17.707Z,50304.00
2019-06-20T10:59:15.102Z,38624.00
2019-06-20T11:01:14.983Z,38496.00
2019-06-20T11:02:15.027Z,44128.00
2019-06-20T11:03:15.074Z,38272.00
2019-06-20T11:04:15.340Z,34240.00
2019-06-20T11:05:15.376Z,36160.00
2019-06-20T11:08:15.504Z,37984.00
2019-06-20T11:09:15.322Z,40800.00
2019-06-20T11:10:15.363Z,42624.00
2019-06-20T11:12:15.677Z,40064.00
2019-06-20T11:13:16.120Z,36288.00
2019-06-20T11:15:15.580Z,32736.00
2019-06-20T11:16:15.629Z,30304.00
2019-06-20T11:17:15.662Z,28928.00
2019-06-20T11:18:15.707Z,28768.00
2019-06-20T11:19:15.745Z,28256.00
2019-06-20T11:20:15.789Z,27680.00
2019-06-20T11:21:15.831Z,27680.00
2019-06-20T11:22:15.873Z,27328.00
2019-06-20T11:23:15.914Z,27808.00
2019-06-20T11:24:15.955Z,28160.00
2019-06-20T11:25:18.996Z,28480.00
2019-06-20T11:26:16.040Z,28192.00
2019-06-20T11:27:16.112Z,27648.00
2019-06-20T11:28:16.127Z,27936.00
2019-06-20T11:29:16.208Z,27744.00
2019-06-20T11:30:16.238Z,27648.00
2019-06-20T11:31:16.361Z,27552.00
2019-06-20T11:32:16.297Z,26880.00
2019-06-20T11:33:16.382Z,26528.00
2019-06-20T11:34:16.378Z,26144.00
2019-06-20T11:35:16.414Z,25568.00
2019-06-20T11:36:16.458Z,24128.00
2019-06-20T11:37:16.500Z,23712.00
2019-06-20T11:38:16.539Z,23200.00
2019-06-20T11:39:16.581Z,22016.00
2019-06-20T11:40:16.624Z,21312.00
2019-06-20T11:41:16.678Z,20960.00
2019-06-20T11:42:16.715Z,20512.00
2019-06-20T11:43:16.753Z,20064.00
2019-06-20T11:44:16.788Z,19712.00
2019-06-20T11:45:16.841Z,19264.00
2019-06-20T11:46:16.870Z,18912.00
2019-06-20T11:47:16.978Z,18688.00
2019-06-20T11:48:16.956Z,18656.00
2019-06-20T11:49:16.994Z,18784.00
2019-06-20T11:50:17.035Z,18848.00
2019-06-20T11:51:17.077Z,18944.00
2019-06-20T11:52:17.118Z,18912.00
2019-06-20T11:53:17.167Z,18816.00
2019-06-20T11:54:17.199Z,18624.00
2019-06-20T11:55:17.246Z,18528.00
2019-06-20T11:56:17.287Z,18400.00
2019-06-20T11:57:17.340Z,18272.00
2019-06-20T11:58:17.366Z,18208.00
2019-06-20T11:59:17.405Z,18240.00
2019-06-20T12:00:17.832Z,18400.00
2019-06-20T12:01:32.085Z,18688.00
2019-06-20T12:02:17.525Z,19104.00
2019-06-20T12:03:17.573Z,19552.00
2019-06-20T12:04:17.608Z,19936.00
2019-06-20T12:05:17.990Z,20384.00
2019-06-20T12:06:17.913Z,21024.00
2019-06-20T12:07:17.732Z,21696.00
2019-06-20T12:08:17.769Z,22432.00
2019-06-20T12:09:17.809Z,23072.00
2019-06-20T12:10:17.925Z,23232.00
2019-06-20T12:11:17.964Z,22944.00
2019-06-20T12:12:17.973Z,22976.00
2019-06-20T12:13:18.057Z,23296.00
2019-06-20T12:14:18.089Z,23808.00
2019-06-20T12:15:18.068Z,24320.00
2019-06-20T12:16:18.143Z,25280.00
2019-06-20T12:17:18.491Z,26944.00
2019-06-20T12:18:18.217Z,29792.00
2019-06-20T12:19:18.218Z,32992.00
2019-06-20T12:20:18.286Z,34688.00
2019-06-20T12:21:18.358Z,38144.00
2019-06-20T12:22:18.386Z,41408.00
2019-06-20T12:23:18.450Z,46368.00
2019-06-20T12:24:18.438Z,53184.00
2019-06-20T12:25:18.459Z,50688.00
2019-06-20T12:26:18.524Z,51840.00
2019-06-20T12:27:18.570Z,63552.00
2019-06-20T12:28:18.668Z,55328.00
2019-06-20T12:29:18.652Z,43328.00
2019-06-20T12:30:18.666Z,32544.00
2019-06-20T12:31:19.961Z,30464.00
2019-06-20T12:32:18.748Z,30784.00
2019-06-20T12:33:18.790Z,29888.00
2019-06-20T12:34:18.843Z,30112.00
2019-06-20T12:35:18.896Z,30528.00
2019-06-20T12:36:18.916Z,34656.00
2019-06-20T12:37:18.961Z,35648.00
2019-06-20T12:38:19.001Z,38976.00
2019-06-20T12:39:19.043Z,46624.00
2019-06-20T12:40:19.087Z,48608.00
2019-06-20T12:41:19.129Z,43872.00
2019-06-20T12:42:19.176Z,42144.00
2019-06-20T12:43:19.438Z,46048.00
2019-06-20T12:49:19.712Z,24768.00
2019-06-20T12:50:19.737Z,26144.00
2019-06-20T12:52:20.432Z,34656.00
2019-06-20T12:53:21.076Z,31456.00
2019-06-20T12:54:21.194Z,25760.00
2019-06-20T12:55:21.242Z,23104.00
2019-06-20T12:56:21.079Z,23200.00
2019-06-20T12:57:20.437Z,26784.00
2019-06-20T12:58:19.877Z,30144.00
2019-06-20T12:59:20.127Z,31840.00
2019-06-20T13:00:20.369Z,34912.00
2019-06-20T13:02:20.854Z,133120.00
2019-06-20T13:03:20.592Z,35264.00
2019-06-20T13:04:20.104Z,24864.00
2019-06-20T13:05:20.144Z,19104.00
2019-06-20T13:06:20.187Z,18144.00
2019-06-20T13:07:20.230Z,16864.00
2019-06-20T13:08:20.274Z,16928.00
2019-06-20T13:09:20.338Z,18304.00
2019-06-20T13:10:20.378Z,20000.00
2019-06-20T13:11:20.400Z,21216.00
2019-06-20T13:12:20.549Z,21792.00
2019-06-20T13:13:20.504Z,21728.00
2019-06-20T13:14:20.790Z,21280.00
2019-06-20T13:15:20.644Z,21504.00
2019-06-20T13:16:20.662Z,20864.00
2019-06-20T13:17:20.694Z,20512.00
2019-06-20T13:18:20.699Z,20640.00
2019-06-20T13:19:20.737Z,20384.00
2019-06-20T13:20:20.802Z,19456.00
2019-06-20T13:21:20.821Z,17824.00
2019-06-20T13:22:20.863Z,16164.00
2019-06-20T13:23:20.906Z,15332.00
2019-06-20T13:24:20.947Z,15356.00
2019-06-20T13:25:20.988Z,15920.00
2019-06-20T13:26:21.028Z,17120.00
2019-06-20T13:27:21.070Z,18560.00
2019-06-20T13:28:21.114Z,19872.00
2019-06-20T13:29:21.155Z,23296.00
2019-06-20T13:30:21.194Z,25856.00
2019-06-20T13:31:21.235Z,24064.00
2019-06-20T13:32:21.277Z,24544.00
2019-06-20T13:33:21.355Z,24736.00
2019-06-20T13:34:21.359Z,20896.00
2019-06-20T13:35:21.398Z,17472.00
2019-06-20T13:36:21.442Z,17120.00
2019-06-20T13:37:21.482Z,17216.00
2019-06-20T13:38:21.520Z,18080.00
2019-06-20T13:39:21.561Z,20160.00
2019-06-20T13:40:21.756Z,21728.00
2019-06-20T13:41:21.644Z,24704.00
2019-06-20T13:42:21.682Z,39488.00
2019-06-20T13:43:21.723Z,127168.00
2019-06-20T13:44:21.915Z,40608.00
2019-06-20T13:45:21.805Z,32608.00
2019-06-20T13:46:21.846Z,21504.00
2019-06-20T13:47:21.889Z,17152.00
2019-06-20T13:48:21.927Z,16016.00
2019-06-20T13:49:21.968Z,11780.00
2019-06-20T13:50:22.010Z,10124.00
2019-06-20T13:51:22.049Z,9212.00
2019-06-20T13:52:22.090Z,8316.00
2019-06-20T13:53:22.343Z,7348.00
2019-06-20T13:54:22.174Z,7400.00
2019-06-20T13:55:22.218Z,8240.00
2019-06-20T13:56:22.279Z,9136.00
2019-06-20T13:57:22.318Z,10288.00
2019-06-20T13:58:22.334Z,11440.00
2019-06-20T13:59:22.375Z,13268.00
2019-06-20T14:00:22.442Z,14256.00
2019-06-20T14:01:22.455Z,13900.00
2019-06-20T14:02:22.495Z,13180.00
2019-06-20T14:03:22.540Z,12324.00
2019-06-20T14:04:22.575Z,10500.00
2019-06-20T14:05:22.625Z,9744.00
2019-06-20T14:06:22.653Z,9072.00
2019-06-20T14:07:22.695Z,8048.00
2019-06-20T14:08:22.741Z,6648.00
2019-06-20T14:09:22.772Z,5744.00
2019-06-20T14:10:22.825Z,5064.00
2019-06-20T14:11:22.853Z,4972.00
2019-06-20T14:12:22.891Z,4940.00
2019-06-20T14:13:22.929Z,4376.00
2019-06-20T14:14:22.980Z,3612.00
2019-06-20T14:15:23.007Z,3204.00
2019-06-20T14:16:23.053Z,2980.00
2019-06-20T14:17:23.085Z,2888.00
2019-06-20T14:18:23.123Z,2688.00
2019-06-20T14:19:23.165Z,2368.00
2019-06-20T14:20:23.201Z,2148.00
2019-06-20T14:21:23.239Z,2192.00
2019-06-20T14:22:23.279Z,2520.00
2019-06-20T14:23:23.317Z,3080.00
2019-06-20T14:24:23.356Z,4512.00
2019-06-20T14:25:23.496Z,10008.00
2019-06-20T14:26:23.432Z,29600.00
2019-06-20T14:27:23.470Z,46464.00
2019-06-20T14:28:23.510Z,29856.00
2019-06-20T14:29:23.546Z,93440.00
2019-06-20T14:30:23.585Z,38144.00
2019-06-20T14:31:23.628Z,25856.00
2019-06-20T14:32:27.093Z,22496.00
2019-06-20T14:33:23.706Z,21824.00
2019-06-20T14:34:23.736Z,24960.00
2019-06-20T14:35:23.775Z,20352.00
2019-06-20T14:36:23.818Z,21152.00
2019-06-20T14:37:23.872Z,81824.00
2019-06-20T14:38:23.906Z,36064.00
2019-06-20T14:39:23.926Z,74208.00
2019-06-20T14:40:23.963Z,129280.00
2019-06-20T14:41:24.004Z,129824.00
2019-06-20T14:42:24.050Z,115488.00
2019-06-20T14:43:24.080Z,104640.00
2019-06-20T14:44:24.122Z,85280.00
2019-06-20T14:45:24.238Z,99904.00
2019-06-20T14:46:24.198Z,105696.00
2019-06-20T14:47:24.244Z,93280.00
2019-06-20T14:48:25.351Z,90688.00
2019-06-20T14:49:24.403Z,93440.00
2019-06-20T14:50:24.363Z,95744.00
2019-06-20T14:52:27.091Z,97376.00
2019-06-20T14:55:07.317Z,19520.00
2019-06-20T14:56:07.137Z,45568.00
2019-06-20T14:57:07.197Z,17632.00
2019-06-20T14:59:07.263Z,14896.00
2019-06-20T15:00:07.308Z,14056.00
2019-06-20T15:01:07.358Z,12724.00
2019-06-20T15:02:07.394Z,12156.00
2019-06-20T15:03:07.437Z,12088.00
2019-06-20T15:04:07.480Z,11988.00
2019-06-20T15:05:07.525Z,12012.00
2019-06-20T15:07:05.159Z,12160.00
2019-06-20T15:08:05.202Z,13984.00
2019-06-20T15:09:06.143Z,100544.00
2019-06-20T15:10:05.286Z,106176.00
2019-06-20T15:11:05.330Z,103328.00
2019-06-20T15:12:05.371Z,89504.00
2019-06-20T15:13:05.746Z,104480.00
2019-06-20T15:14:05.653Z,102240.00
2019-06-20T15:15:05.727Z,102880.00
2019-06-20T15:16:05.559Z,101792.00
2019-06-20T15:17:50.268Z,96160.00
2019-06-20T15:19:49.387Z,86304.00
2019-06-20T15:20:48.721Z,86368.00
2019-06-20T15:21:48.927Z,89600.00
2019-06-20T15:22:49.274Z,92992.00
2019-06-20T15:23:49.503Z,91584.00
2019-06-20T15:25:49.131Z,93504.00
2019-06-20T15:26:49.445Z,92032.00
2019-06-20T15:29:33.807Z,17492.00
2019-06-20T15:30:33.801Z,18912.00
2019-06-20T15:31:33.847Z,15604.00
2019-06-20T15:32:33.895Z,15184.00
2019-06-20T15:33:34.281Z,14944.00
2019-06-20T15:34:34.188Z,14952.00
2019-06-20T15:35:34.030Z,16020.00
2019-06-20T15:36:34.075Z,40672.00
2019-06-20T15:37:34.121Z,44032.00
2019-06-20T15:38:34.164Z,61696.00
2019-06-20T15:39:34.209Z,11856.00
2019-06-20T15:40:34.254Z,9160.00
2019-06-20T15:41:34.299Z,9804.00
2019-06-20T15:42:34.341Z,11660.00
2019-06-20T15:43:34.394Z,13356.00
2019-06-20T15:44:34.453Z,13064.00
2019-06-20T15:45:34.472Z,12712.00
2019-06-20T15:46:34.516Z,13032.00
2019-06-20T15:47:34.581Z,20640.00
2019-06-20T15:48:34.604Z,51104.00
2019-06-20T15:49:34.678Z,48544.00
2019-06-20T15:51:35.665Z,9780.00
2019-06-20T15:52:34.795Z,9316.00
2019-06-20T15:53:34.813Z,6904.00
2019-06-20T15:54:34.878Z,4916.00
2019-06-20T15:55:34.897Z,3904.00
2019-06-20T15:56:34.961Z,3540.00
2019-06-20T15:57:35.290Z,3312.00
2019-06-20T15:59:35.400Z,3044.00
2019-06-20T16:00:35.119Z,2964.00
2019-06-20T16:01:35.144Z,2808.00
2019-06-20T16:02:35.194Z,2628.00
2019-06-20T16:04:22.839Z,2264.00
2019-06-20T16:06:22.873Z,1820.00
2019-06-20T16:07:22.939Z,1556.00
2019-06-20T16:08:22.957Z,1356.00
2019-06-20T16:09:24.206Z,1224.00
2019-06-20T16:10:23.031Z,1152.00
2019-06-20T16:11:23.071Z,1068.00
2019-06-20T16:12:23.111Z,1044.00
2019-06-20T16:13:23.152Z,1092.00
2019-06-20T16:14:23.189Z,1112.00
2019-06-20T16:15:23.238Z,1168.00
2019-06-20T16:16:23.270Z,1224.00
2019-06-20T16:17:23.307Z,1320.00
2019-06-20T16:18:23.370Z,1328.00
2019-06-20T16:19:23.616Z,1344.00
2019-06-20T16:20:23.478Z,1328.00
2019-06-20T16:21:23.460Z,1476.00
2019-06-20T16:22:23.496Z,1684.00
2019-06-20T16:23:23.533Z,1980.00
2019-06-20T16:24:23.578Z,2456.00
2019-06-20T16:25:23.607Z,2648.00
2019-06-20T16:26:23.647Z,4812.00
2019-06-20T16:27:23.683Z,7184.00
2019-06-20T16:28:23.715Z,16544.00
2019-06-20T16:30:06.302Z,18112.00
2019-06-20T16:31:13.259Z,28768.00
2019-06-20T16:32:06.371Z,53440.00
2019-06-20T16:33:06.406Z,23904.00
2019-06-20T16:34:06.442Z,14440.00
2019-06-20T16:35:06.480Z,12876.00
2019-06-20T16:38:09.201Z,10136.00
2019-06-20T16:39:06.616Z,8912.00
2019-06-20T16:40:06.650Z,7928.00
2019-06-20T16:41:06.684Z,7528.00
2019-06-20T16:42:06.720Z,7124.00
2019-06-20T16:43:06.754Z,7628.00
2019-06-20T16:44:06.790Z,70624.00
2019-06-20T16:45:06.825Z,26112.00
2019-06-20T16:46:06.860Z,57248.00
2019-06-20T16:47:06.894Z,8904.00
2019-06-20T16:48:06.929Z,28480.00
2019-06-20T16:49:06.963Z,12144.00
2019-06-20T16:50:06.997Z,10600.00
2019-06-20T16:51:07.033Z,10152.00
2019-06-20T16:52:07.074Z,10696.00
2019-06-20T16:53:07.106Z,10744.00
2019-06-20T16:54:07.140Z,10528.00
2019-06-20T16:55:07.176Z,10764.00
2019-06-20T16:56:07.210Z,11272.00
2019-06-20T16:57:07.246Z,11560.00
2019-06-20T16:58:07.380Z,11328.00
2019-06-20T16:59:07.317Z,11084.00
2019-06-20T17:00:07.350Z,11096.00
2019-06-20T17:01:07.389Z,11152.00
2019-06-20T17:02:07.462Z,10344.00
2019-06-20T17:03:07.458Z,9472.00
2019-06-20T17:04:07.495Z,10612.00
2019-06-20T17:05:07.526Z,9936.00
2019-06-20T17:06:07.564Z,10316.00
2019-06-20T17:07:07.597Z,10676.00
2019-06-20T17:08:07.638Z,11120.00
2019-06-20T17:09:07.671Z,10252.00
2019-06-20T17:10:07.707Z,9040.00
2019-06-20T17:11:07.739Z,8740.00
2019-06-20T17:12:11.046Z,8596.00
2019-06-20T17:13:07.807Z,7960.00
2019-06-20T17:14:07.846Z,6792.00
2019-06-20T17:15:07.948Z,5520.00
2019-06-20T17:16:07.913Z,4288.00
2019-06-20T17:17:07.993Z,3456.00
2019-06-20T17:18:07.984Z,3236.00
2019-06-20T17:19:08.028Z,3348.00
2019-06-20T17:20:08.054Z,3540.00
2019-06-20T17:21:08.087Z,3820.00
2019-06-20T17:22:08.125Z,4012.00
2019-06-20T17:23:08.163Z,4124.00
2019-06-20T17:25:08.277Z,3764.00
2019-06-20T17:26:08.262Z,3288.00
2019-06-20T17:27:08.299Z,2728.00
2019-06-20T17:28:08.334Z,2320.00
2019-06-20T17:29:08.366Z,2068.00